Time;durP1;ratioP1;P1;durP2;ratioP2;P2;SDS_P1;SDS_P2;PMS_P1;PMS_P2;Temp;Humidity;BMP_temperature;BMP_pressure;BME280_temperature;BME280_humidity;BME280_pressure;Samples;Min_cycle;Max_cycle;Signal;HPM_P1;HPM_P2
2024/04/12 00:02:14;;;;;;;3.35;1.70;;;;;;;;;;6601840;26;20013;-83
2024/04/12 00:05:20;;;;;;;2.15;1.60;;;;;;;;;;6608557;26;20004;-82
2024/04/12 00:08:23;;;;;;;3.45;1.83;;;;;;;;;;6611111;26;20076;-83
2024/04/12 00:11:25;;;;;;;3.25;2.10;;;;;;;;;;6604233;26;20111;-84
2024/04/12 00:14:27;;;;;;;2.73;1.70;;;;;;;;;;6609700;26;20018;-83
2024/04/12 00:17:31;;;;;;;7.70;1.97;;;;;;;;;;6624793;26;20041;-83
2024/04/12 00:20:35;;;;;;;2.40;1.67;;;;;;;;;;6621841;26;20371;-83
2024/04/12 00:23:40;;;;;;;3.05;1.70;;;;;;;;;;6633741;26;20001;-83
2024/04/12 00:26:45;;;;;;;6.35;1.65;;;;;;;;;;6596118;26;20002;-83
2024/04/12 00:29:48;;;;;;;6.13;1.60;;;;;;;;;;6618784;26;20056;-83
2024/04/12 00:32:57;;;;;;;4.50;1.60;;;;;;;;;;6611423;26;20351;-83
2024/04/12 00:36:12;;;;;;;2.85;1.77;;;;;;;;;;6621762;26;20459;-83
2024/04/12 00:39:35;;;;;;;3.17;1.75;;;;;;;;;;6621752;26;20019;-84
2024/04/12 00:42:36;;;;;;;5.03;2.08;;;;;;;;;;6621483;26;20449;-83
2024/04/12 00:45:45;;;;;;;5.97;2.07;;;;;;;;;;6586848;26;20060;-83
2024/04/12 00:48:51;;;;;;;2.88;1.85;;;;;;;;;;6611623;26;20016;-83
2024/04/12 00:51:54;;;;;;;2.83;1.70;;;;;;;;;;6580014;26;20012;-83
2024/04/12 00:55:06;;;;;;;2.77;2.00;;;;;;;;;;6620045;26;20334;-84
2024/04/12 00:58:10;;;;;;;2.85;2.13;;;;;;;;;;6609718;26;20045;-84
2024/04/12 01:01:15;;;;;;;4.77;1.87;;;;;;;;;;6600636;26;20016;-84
2024/04/12 01:04:21;;;;;;;3.28;2.10;;;;;;;;;;6598969;26;20084;-84
2024/04/12 01:07:23;;;;;;;3.78;1.83;;;;;;;;;;6609148;26;20021;-84
2024/04/12 01:10:30;;;;;;;3.23;2.10;;;;;;;;;;6618549;26;20006;-84
2024/04/12 01:13:35;;;;;;;8.63;2.20;;;;;;;;;;6616505;26;19997;-84
2024/04/12 01:16:39;;;;;;;6.03;1.92;;;;;;;;;;6614033;26;20013;-84
2024/04/12 01:19:41;;;;;;;4.90;2.20;;;;;;;;;;6578388;26;20423;-84
2024/04/12 01:22:46;;;;;;;5.70;2.13;;;;;;;;;;6632275;26;20004;-85
2024/04/12 01:25:51;;;;;;;3.38;1.95;;;;;;;;;;6607827;26;20005;-84
2024/04/12 01:28:56;;;;;;;4.50;2.05;;;;;;;;;;6620816;26;20330;-84
2024/04/12 01:32:00;;;;;;;4.22;2.20;;;;;;;;;;6636879;26;19997;-82
2024/04/12 01:35:03;;;;;;;4.88;2.10;;;;;;;;;;6604796;26;20088;-83
2024/04/12 01:38:18;;;;;;;;;;;;;;;;;;6603423;26;20016;-83
2024/04/12 01:41:27;;;;;;;4.22;3.20;;;;;;;;;;6597273;26;19959;-83
2024/04/12 01:44:30;;;;;;;3.72;3.05;;;;;;;;;;6606409;26;20079;-82
2024/04/12 01:47:34;;;;;;;4.55;3.67;;;;;;;;;;6599400;26;20001;-82
2024/04/12 01:50:40;;;;;;;2.83;2.10;;;;;;;;;;6622366;26;20061;-84
2024/04/12 01:53:42;;;;;;;2.10;1.90;;;;;;;;;;6609173;26;20059;-84
2024/04/12 01:56:47;;;;;;;5.00;1.92;;;;;;;;;;6621774;26;20024;-84
2024/04/12 01:59:53;;;;;;;2.75;1.45;;;;;;;;;;6622382;26;20025;-85
2024/04/12 02:02:59;;;;;;;1.80;1.48;;;;;;;;;;6600933;26;20016;-85
2024/04/12 02:06:05;;;;;;;2.65;2.03;;;;;;;;;;6591694;26;20013;-84
2024/04/12 02:09:13;;;;;;;4.22;1.88;;;;;;;;;;6612542;26;20406;-84
2024/04/12 02:12:16;;;;;;;4.05;2.05;;;;;;;;;;6617306;26;20060;-84
2024/04/12 02:15:25;;;;;;;2.97;2.03;;;;;;;;;;6605718;26;20079;-84
2024/04/12 02:18:32;;;;;;;4.15;2.00;;;;;;;;;;6611701;26;20505;-84
2024/04/12 02:21:38;;;;;;;5.50;2.13;;;;;;;;;;6599073;26;20005;-85
2024/04/12 02:24:41;;;;;;;2.60;1.95;;;;;;;;;;6596154;26;20500;-84
2024/04/12 02:27:46;;;;;;;2.28;1.83;;;;;;;;;;6611083;26;20009;-84
2024/04/12 02:30:57;;;;;;;2.33;1.73;;;;;;;;;;6606974;26;20012;-84
2024/04/12 02:34:01;;;;;;;2.47;1.80;;;;;;;;;;6607656;26;20035;-84
2024/04/12 02:37:06;;;;;;;2.70;2.13;;;;;;;;;;6588501;26;20041;-84
2024/04/12 02:40:15;;;;;;;2.53;1.60;;;;;;;;;;6624330;26;23529;-85
2024/04/12 02:43:18;;;;;;;6.65;1.95;;;;;;;;;;6624812;26;20012;-84
2024/04/12 02:46:21;;;;;;;3.97;2.05;;;;;;;;;;6621188;26;20022;-84
2024/04/12 02:49:23;;;;;;;3.88;2.20;;;;;;;;;;6625897;26;20006;-84
2024/04/12 02:52:27;;;;;;;4.10;2.40;;;;;;;;;;6603265;26;20016;-84
2024/04/12 02:55:30;;;;;;;5.72;2.92;;;;;;;;;;6591513;26;20005;-84
2024/04/12 02:58:38;;;;;;;5.05;2.47;;;;;;;;;;6608925;26;20348;-84
2024/04/12 03:01:41;;;;;;;2.63;2.10;;;;;;;;;;6594675;26;20449;-85
2024/04/12 03:04:43;;;;;;;5.20;1.77;;;;;;;;;;6596765;26;20037;-84
2024/04/12 03:07:46;;;;;;;2.60;1.85;;;;;;;;;;6617260;26;20004;-85
2024/04/12 03:10:48;;;;;;;3.22;1.92;;;;;;;;;;6574686;26;20016;-84
2024/04/12 03:14:03;;;;;;;3.53;2.80;;;;;;;;;;6593074;26;20082;-85
2024/04/12 03:17:06;;;;;;;4.85;2.58;;;;;;;;;;6608112;26;20005;-85
2024/04/12 03:20:08;;;;;;;7.45;2.53;;;;;;;;;;6594366;26;19997;-84
2024/04/12 03:23:11;;;;;;;4.97;2.70;;;;;;;;;;6592257;26;20046;-84
2024/04/12 03:26:14;;;;;;;;;;;;;;;;;;6615127;26;20028;-84
2024/04/12 03:29:17;;;;;;;4.50;1.95;;;;;;;;;;6573194;26;19937;-84
2024/04/12 03:32:19;;;;;;;9.18;5.55;;;;;;;;;;6600241;26;20009;-84
2024/04/12 03:35:25;;;;;;;13.32;7.07;;;;;;;;;;6604826;26;20005;-84
2024/04/12 03:38:28;;;;;;;14.25;7.68;;;;;;;;;;6603041;26;20005;-84
2024/04/12 03:41:32;;;;;;;15.25;8.45;;;;;;;;;;6589042;26;20056;-84
2024/04/12 03:44:36;;;;;;;7.85;5.43;;;;;;;;;;6588917;26;20020;-84
2024/04/12 03:47:40;;;;;;;9.13;4.68;;;;;;;;;;6606277;26;20005;-84
2024/04/12 03:50:48;;;;;;;6.05;3.78;;;;;;;;;;6603116;26;20002;-84
2024/04/12 03:53:51;;;;;;;9.85;4.50;;;;;;;;;;6603598;26;20021;-85
2024/04/12 03:56:58;;;;;;;6.50;3.87;;;;;;;;;;6618060;26;20020;-85
2024/04/12 04:00:02;;;;;;;7.80;3.47;;;;;;;;;;6609727;26;20011;-84
2024/04/12 04:03:30;;;;;;;6.90;3.90;;;;;;;;;;6603802;26;20047;-84
2024/04/12 04:06:36;;;;;;;7.50;3.10;;;;;;;;;;6598263;26;20454;-84
2024/04/12 04:09:38;;;;;;;4.88;2.60;;;;;;;;;;6615153;26;20005;-83
2024/04/12 04:12:49;;;;;;;4.03;2.60;;;;;;;;;;6609935;26;20004;-85
2024/04/12 04:15:55;;;;;;;4.40;2.67;;;;;;;;;;6613078;26;20498;-84
2024/04/12 04:18:57;;;;;;;4.45;2.70;;;;;;;;;;6607848;26;20000;-83
2024/04/12 04:22:01;;;;;;;5.00;2.50;;;;;;;;;;6600329;26;20363;-84
2024/04/12 04:25:08;;;;;;;6.78;3.47;;;;;;;;;;6600525;26;20019;-84
2024/04/12 04:28:11;;;;;;;4.55;3.20;;;;;;;;;;6589665;26;20450;-85
2024/04/12 04:31:13;;;;;;;5.57;3.40;;;;;;;;;;6597419;26;20004;-84
2024/04/12 04:34:22;;;;;;;3.58;2.80;;;;;;;;;;6602965;26;20009;-87
2024/04/12 04:37:27;;;;;;;4.93;2.40;;;;;;;;;;6595604;26;20029;-86
2024/04/12 04:40:35;;;;;;;3.10;2.03;;;;;;;;;;6600222;26;20011;-85
2024/04/12 04:43:38;;;;;;;3.38;2.35;;;;;;;;;;6603898;26;20015;-86
2024/04/12 04:46:49;;;;;;;4.85;2.42;;;;;;;;;;6595573;26;20010;-86
2024/04/12 04:49:52;;;;;;;4.63;2.40;;;;;;;;;;6599313;26;20005;-86
2024/04/12 04:52:55;;;;;;;4.53;2.33;;;;;;;;;;6628138;26;20061;-84
2024/04/12 04:56:01;;;;;;;4.55;2.78;;;;;;;;;;6599165;26;19997;-84
2024/04/12 04:59:06;;;;;;;3.60;2.60;;;;;;;;;;6604764;26;20002;-86
2024/04/12 05:02:10;;;;;;;5.68;2.28;;;;;;;;;;6598902;26;20036;-85
2024/04/12 05:05:12;;;;;;;6.03;2.83;;;;;;;;;;6596807;26;20009;-84
2024/04/12 05:08:15;;;;;;;4.00;2.70;;;;;;;;;;6598189;26;20072;-85
2024/04/12 05:11:17;;;;;;;5.30;2.60;;;;;;;;;;6628230;26;20015;-85
2024/04/12 05:17:38;;;;;;;7.00;3.45;;;;;;;;;;6597865;26;20479;-84
2024/04/12 05:20:42;;;;;;;4.88;2.47;;;;;;;;;;6602757;26;20004;-86
2024/04/12 05:23:44;;;;;;;4.93;3.13;;;;;;;;;;6598708;26;20468;-85
2024/04/12 05:27:01;;;;;;;6.93;3.33;;;;;;;;;;6612096;26;20502;-85
2024/04/12 05:30:03;;;;;;;6.07;4.20;;;;;;;;;;6580366;26;20079;-85
2024/04/12 05:33:06;;;;;;;5.57;3.80;;;;;;;;;;6599834;26;20366;-85
2024/04/12 05:36:14;;;;;;;4.55;3.38;;;;;;;;;;6608295;26;20082;-85
2024/04/12 05:39:19;;;;;;;6.90;3.78;;;;;;;;;;6629509;26;20024;-86
2024/04/12 05:42:22;;;;;;;5.93;3.80;;;;;;;;;;6606616;26;20005;-85
2024/04/12 05:45:26;;;;;;;4.53;2.63;;;;;;;;;;6608215;26;20079;-84
2024/04/12 05:48:30;;;;;;;8.07;3.35;;;;;;;;;;6608144;26;20001;-85
2024/04/12 05:51:32;;;;;;;4.78;2.60;;;;;;;;;;6602307;26;20001;-86
2024/04/12 05:54:44;;;;;;;4.90;2.70;;;;;;;;;;6597620;26;20013;-85
2024/04/12 05:57:50;;;;;;;3.83;2.40;;;;;;;;;;6582096;26;20005;-85
2024/04/12 06:00:56;;;;;;;5.30;2.35;;;;;;;;;;6614190;26;20073;-85
2024/04/12 06:03:59;;;;;;;4.00;2.63;;;;;;;;;;6602337;26;20704;-84
2024/04/12 06:07:07;;;;;;;;;;;;;;;;;;6592144;26;20603;-85
2024/04/12 06:10:10;;;;;;;4.97;3.17;;;;;;;;;;6604429;26;19927;-85
2024/04/12 06:13:12;;;;;;;4.70;2.78;;;;;;;;;;6611306;26;20053;-85
2024/04/12 06:16:17;;;;;;;5.95;3.03;;;;;;;;;;6597676;26;20470;-85
2024/04/12 06:19:20;;;;;;;3.83;2.65;;;;;;;;;;6598032;26;20033;-85
2024/04/12 06:22:26;;;;;;;5.38;2.45;;;;;;;;;;6576294;26;20002;-85
2024/04/12 06:25:28;;;;;;;4.88;2.67;;;;;;;;;;6608177;26;20013;-86
2024/04/12 06:28:30;;;;;;;7.32;3.75;;;;;;;;;;6604450;26;20005;-85
2024/04/12 06:31:35;;;;;;;4.30;2.83;;;;;;;;;;6599279;26;20056;-85
2024/04/12 06:34:38;;;;;;;6.72;2.88;;;;;;;;;;6600663;26;20037;-85
2024/04/12 06:37:40;;;;;;;7.90;2.90;;;;;;;;;;6597715;26;20016;-86
2024/04/12 06:40:52;;;;;;;8.63;2.77;;;;;;;;;;6612530;26;20001;-85
2024/04/12 06:43:55;;;;;;;5.85;2.60;;;;;;;;;;6603700;26;20006;-85
2024/04/12 06:46:58;;;;;;;3.85;2.30;;;;;;;;;;6598721;26;20016;-85
2024/04/12 06:50:08;;;;;;;4.07;2.47;;;;;;;;;;6631440;26;20002;-86
2024/04/12 06:53:10;;;;;;;5.97;2.40;;;;;;;;;;6608390;26;20032;-86
2024/04/12 06:56:15;;;;;;;4.32;2.40;;;;;;;;;;6605209;26;20448;-85
2024/04/12 06:59:18;;;;;;;5.65;2.97;;;;;;;;;;6601159;26;20033;-83
2024/04/12 07:02:24;;;;;;;5.50;2.70;;;;;;;;;;6604369;26;20068;-87
2024/04/12 07:05:29;;;;;;;4.80;2.72;;;;;;;;;;6591063;26;20078;-85
2024/04/12 07:08:33;;;;;;;5.90;2.57;;;;;;;;;;6609272;26;20001;-86
2024/04/12 07:11:39;;;;;;;4.95;2.40;;;;;;;;;;6614581;26;19996;-87
2024/04/12 07:14:42;;;;;;;3.70;2.35;;;;;;;;;;6610023;26;20025;-86
2024/04/12 07:17:47;;;;;;;6.82;2.55;;;;;;;;;;6609429;26;20016;-83
2024/04/12 07:20:50;;;;;;;5.28;2.60;;;;;;;;;;6603112;26;20024;-84
2024/04/12 07:23:54;;;;;;;3.50;2.20;;;;;;;;;;6619255;26;20009;-84
2024/04/12 07:26:56;;;;;;;5.35;2.58;;;;;;;;;;6623739;26;20001;-83
2024/04/12 07:29:58;;;;;;;8.20;2.47;;;;;;;;;;6609305;26;20503;-83
2024/04/12 07:33:05;;;;;;;6.28;2.53;;;;;;;;;;6605017;26;20781;-84
2024/04/12 07:36:16;;;;;;;5.45;2.83;;;;;;;;;;6607131;26;20023;-84
2024/04/12 07:39:18;;;;;;;5.22;2.38;;;;;;;;;;6613110;26;20010;-84
2024/04/12 07:42:22;;;;;;;5.07;2.10;;;;;;;;;;6609005;26;20021;-84
2024/04/12 07:45:25;;;;;;;6.72;2.22;;;;;;;;;;6608786;26;20017;-84
2024/04/12 07:48:28;;;;;;;4.28;2.42;;;;;;;;;;6594745;26;20028;-84
2024/04/12 07:51:41;;;;;;;12.82;2.70;;;;;;;;;;6605320;26;20061;-85
2024/04/12 07:54:44;;;;;;;7.28;2.72;;;;;;;;;;6597942;26;20489;-83
2024/04/12 07:57:52;;;;;;;7.35;2.78;;;;;;;;;;6621110;26;20065;-83
2024/04/12 08:01:17;;;;;;;4.95;2.70;;;;;;;;;;6603521;26;20009;-84
2024/04/12 08:04:26;;;;;;;4.85;2.20;;;;;;;;;;6599706;26;20041;-84
2024/04/12 08:07:30;;;;;;;4.95;2.40;;;;;;;;;;6597540;26;20015;-85
2024/04/12 08:10:41;;;;;;;5.75;2.47;;;;;;;;;;6616351;26;20041;-85
2024/04/12 08:13:50;;;;;;;3.60;2.00;;;;;;;;;;6614524;26;20005;-85
2024/04/12 08:16:54;;;;;;;4.30;2.28;;;;;;;;;;6605906;26;20020;-83
2024/04/12 08:20:13;;;;;;;12.95;2.63;;;;;;;;;;6615040;26;20005;-86
2024/04/12 08:23:17;;;;;;;7.43;2.70;;;;;;;;;;6614501;26;20024;-85
2024/04/12 08:26:27;;;;;;;9.70;2.78;;;;;;;;;;6568745;26;20020;-84
2024/04/12 08:29:32;;;;;;;6.38;2.70;;;;;;;;;;6627922;26;19996;-86
2024/04/12 08:32:35;;;;;;;3.83;2.63;;;;;;;;;;6610292;26;20006;-84
2024/04/12 08:35:37;;;;;;;7.10;2.65;;;;;;;;;;6610819;26;20005;-84
2024/04/12 08:38:54;;;;;;;7.82;2.92;;;;;;;;;;6586338;26;20012;-85
2024/04/12 08:42:01;;;;;;;7.57;3.03;;;;;;;;;;6612382;26;20013;-84
2024/04/12 08:45:14;;;;;;;3.55;1.98;;;;;;;;;;6608902;26;20005;-84
2024/04/12 08:48:17;;;;;;;3.50;1.98;;;;;;;;;;6600275;26;20013;-85
2024/04/12 08:51:21;;;;;;;4.47;1.65;;;;;;;;;;6605839;26;20009;-85
2024/04/12 08:54:25;;;;;;;3.60;1.48;;;;;;;;;;6610629;26;20024;-84
2024/04/12 08:57:27;;;;;;;4.97;1.77;;;;;;;;;;6617258;26;20005;-85
2024/04/12 09:00:33;;;;;;;5.90;1.42;;;;;;;;;;6613919;26;20085;-85
2024/04/12 09:03:40;;;;;;;5.32;1.20;;;;;;;;;;6600137;26;20012;-85
2024/04/12 09:06:48;;;;;;;4.15;1.40;;;;;;;;;;6577597;26;20010;-85
2024/04/12 09:09:55;;;;;;;1.75;1.10;;;;;;;;;;6599927;26;20016;-85
2024/04/12 09:13:00;;;;;;;2.90;1.10;;;;;;;;;;6615583;26;20030;-85
2024/04/12 09:16:06;;;;;;;2.67;1.15;;;;;;;;;;6613972;26;20024;-85
2024/04/12 09:19:14;;;;;;;2.17;0.80;;;;;;;;;;6583347;26;20009;-85
2024/04/12 09:22:18;;;;;;;4.00;1.38;;;;;;;;;;6605377;26;20020;-85
2024/04/12 09:25:26;;;;;;;3.42;1.20;;;;;;;;;;6607219;26;20369;-85
2024/04/12 09:28:37;;;;;;;2.22;0.98;;;;;;;;;;6614892;26;20009;-84
2024/04/12 09:35:03;;;;;;;1.50;1.10;;;;;;;;;;6610919;26;20005;-87
2024/04/12 09:38:16;;;;;;;2.60;1.10;;;;;;;;;;6633584;26;20016;-85
2024/04/12 09:41:31;;;;;;;1.48;0.85;;;;;;;;;;6601952;26;20005;-87
2024/04/12 09:44:48;;;;;;;1.88;1.00;;;;;;;;;;6581363;26;20001;-86
2024/04/12 10:38:47;;;;;;;1.13;0.60;;;;;;;;;;6613658;26;25375;-85
2024/04/12 10:41:50;;;;;;;1.15;0.50;;;;;;;;;;6605632;26;20341;-85
2024/04/12 10:44:56;;;;;;;0.82;0.60;;;;;;;;;;6606895;26;20076;-85
2024/04/12 10:48:04;;;;;;;0.70;0.50;;;;;;;;;;6604773;26;20476;-84
2024/04/12 10:51:14;;;;;;;1.65;0.82;;;;;;;;;;6623773;26;20440;-85
2024/04/12 10:54:23;;;;;;;1.13;0.50;;;;;;;;;;6601217;26;20063;-85
2024/04/12 10:57:29;;;;;;;2.20;0.60;;;;;;;;;;6582512;26;20012;-84
2024/04/12 11:00:35;;;;;;;1.67;0.50;;;;;;;;;;6579314;26;20001;-84
2024/04/12 11:03:38;;;;;;;4.00;1.42;;;;;;;;;;6606209;26;20002;-84
2024/04/12 11:06:41;;;;;;;0.60;0.60;;;;;;;;;;6603890;26;20407;-84
2024/04/12 11:09:43;;;;;;;0.68;0.57;;;;;;;;;;6618305;26;20012;-84
2024/04/12 11:12:50;;;;;;;0.95;0.47;;;;;;;;;;6614823;26;20015;-86
2024/04/12 11:32:37;;;;;;;1.48;0.80;;;;;;;;;;6601226;26;20340;-83
2024/04/12 11:35:41;;;;;;;1.17;0.82;;;;;;;;;;6604057;26;20083;-84
2024/04/12 11:38:47;;;;;;;1.40;0.80;;;;;;;;;;6633165;26;20032;-83
2024/04/12 11:41:50;;;;;;;2.03;0.93;;;;;;;;;;6611428;26;20015;-88
2024/04/12 11:44:53;;;;;;;0.70;0.70;;;;;;;;;;6588718;26;19997;-84
2024/04/12 11:47:58;;;;;;;1.25;1.00;;;;;;;;;;6592879;26;20049;-83
2024/04/12 11:51:08;;;;;;;1.88;1.00;;;;;;;;;;6620727;26;20004;-83
2024/04/12 11:54:13;;;;;;;1.20;1.10;;;;;;;;;;6593655;26;20013;-84
2024/04/12 11:57:19;;;;;;;1.02;0.90;;;;;;;;;;6601344;26;20023;-84
2024/04/12 12:00:21;;;;;;;1.58;0.80;;;;;;;;;;6611012;26;20383;-84
2024/04/12 12:03:25;;;;;;;1.80;0.75;;;;;;;;;;6597931;26;20040;-84
2024/04/12 12:06:30;;;;;;;0.82;0.70;;;;;;;;;;6602730;26;20005;-84
2024/04/12 12:09:36;;;;;;;0.85;0.85;;;;;;;;;;6606995;26;20624;-84
2024/04/12 12:12:39;;;;;;;1.10;0.95;;;;;;;;;;6602843;26;20005;-83
2024/04/12 12:15:42;;;;;;;0.93;0.77;;;;;;;;;;6598570;26;20005;-83
2024/04/12 12:18:44;;;;;;;1.23;0.82;;;;;;;;;;6611925;26;20025;-84
2024/04/12 12:21:49;;;;;;;1.08;0.70;;;;;;;;;;6607404;26;20005;-85
2024/04/12 12:24:51;;;;;;;0.95;0.60;;;;;;;;;;6604433;26;20040;-83
2024/04/12 12:27:54;;;;;;;1.45;0.50;;;;;;;;;;6614399;26;20010;-84
2024/04/12 12:30:57;;;;;;;1.45;0.60;;;;;;;;;;6632452;26;20042;-85
2024/04/12 12:34:00;;;;;;;0.68;0.65;;;;;;;;;;6601505;26;20328;-85
2024/04/12 12:37:04;;;;;;;2.35;0.68;;;;;;;;;;6600064;26;20031;-85
2024/04/12 12:40:13;;;;;;;0.77;0.60;;;;;;;;;;6589704;26;20009;-84
2024/04/12 12:43:15;;;;;;;2.53;0.60;;;;;;;;;;6601389;26;20002;-82
2024/04/12 12:46:24;;;;;;;0.90;0.60;;;;;;;;;;6594204;26;20005;-84
2024/04/12 12:49:39;;;;;;;1.17;0.60;;;;;;;;;;6593937;26;20014;-85
2024/04/12 12:52:47;;;;;;;2.85;0.70;;;;;;;;;;6582409;26;20013;-84
2024/04/12 12:55:55;;;;;;;19.98;4.03;;;;;;;;;;6604469;26;20033;-84
2024/04/12 12:58:59;;;;;;;0.73;0.65;;;;;;;;;;6597133;26;20002;-86
2024/04/12 13:02:03;;;;;;;0.82;0.50;;;;;;;;;;6610200;26;20019;-87
2024/04/12 13:05:09;;;;;;;0.95;0.50;;;;;;;;;;6591715;26;20589;-84
2024/04/12 13:08:17;;;;;;;0.55;0.55;;;;;;;;;;6593155;26;20038;-85
2024/04/12 13:11:25;;;;;;;2.25;0.50;;;;;;;;;;6597129;26;20472;-84
2024/04/12 13:14:27;;;;;;;0.50;0.40;;;;;;;;;;6601693;26;20016;-85
2024/04/12 13:17:36;;;;;;;0.52;0.52;;;;;;;;;;6600668;26;20078;-85
2024/04/12 13:20:39;;;;;;;4.47;0.70;;;;;;;;;;6606434;26;20005;-85
2024/04/12 13:23:42;;;;;;;0.90;0.70;;;;;;;;;;6578796;26;20002;-84
2024/04/12 13:26:50;;;;;;;1.23;0.70;;;;;;;;;;6604456;26;20006;-84
2024/04/12 13:29:53;;;;;;;11.00;1.15;;;;;;;;;;6603349;26;20009;-84
2024/04/12 13:32:58;;;;;;;0.73;0.60;;;;;;;;;;6588886;26;20072;-85
2024/04/12 13:36:10;;;;;;;1.13;0.80;;;;;;;;;;6602535;26;20512;-84
2024/04/12 13:39:13;;;;;;;3.67;0.70;;;;;;;;;;6589270;26;20009;-82
2024/04/12 13:42:16;;;;;;;;;;;;;;;;;;6612450;26;20044;-82
2024/04/12 13:52:00;;;;;;;0.93;0.60;;;;;;;;;;6600434;26;21076;-85
2024/04/12 13:55:10;;;;;;;0.80;0.60;;;;;;;;;;6598185;26;20755;-86
2024/04/12 13:58:13;;;;;;;2.63;0.40;;;;;;;;;;6601807;26;20002;-84
2024/04/12 14:01:25;;;;;;;1.40;0.70;;;;;;;;;;6599901;26;20005;-85
2024/04/12 14:04:28;;;;;;;3.13;0.60;;;;;;;;;;6603908;26;20057;-85
2024/04/12 14:07:33;;;;;;;0.50;0.40;;;;;;;;;;6610429;26;20328;-87
2024/04/12 14:10:36;;;;;;;0.95;0.50;;;;;;;;;;6609241;26;20014;-87
2024/04/12 14:13:39;;;;;;;1.02;0.60;;;;;;;;;;6593749;26;20014;-85
2024/04/12 14:16:41;;;;;;;3.60;0.75;;;;;;;;;;6612684;26;20021;-85
2024/04/12 14:19:44;;;;;;;2.15;0.82;;;;;;;;;;6626898;26;20748;-86
2024/04/12 14:22:47;;;;;;;1.40;0.40;;;;;;;;;;6607730;26;20014;-84
2024/04/12 14:25:49;;;;;;;;;;;;;;;;;;6606258;26;21378;-86
2024/04/12 14:28:51;;;;;;;3.50;0.60;;;;;;;;;;6580197;26;19953;-86
2024/04/12 14:31:55;;;;;;;0.60;0.60;;;;;;;;;;6610987;26;20029;-85
2024/04/12 14:34:58;;;;;;;0.70;0.70;;;;;;;;;;6571794;26;20079;-84
2024/04/12 14:38:15;;;;;;;2.15;0.70;;;;;;;;;;6609718;26;20016;-87
2024/04/12 14:41:19;;;;;;;1.02;0.75;;;;;;;;;;6614803;26;20013;-83
2024/04/12 14:44:27;;;;;;;1.30;0.70;;;;;;;;;;6603258;26;20005;-86
2024/04/12 14:47:29;;;;;;;0.73;0.73;;;;;;;;;;6626019;26;20054;-85
2024/04/12 14:50:32;;;;;;;1.10;0.60;;;;;;;;;;6601257;26;20075;-86
2024/04/12 14:53:37;;;;;;;1.33;0.70;;;;;;;;;;6614148;26;20008;-84
2024/04/12 14:56:40;;;;;;;1.10;0.90;;;;;;;;;;6609404;26;20013;-86
2024/04/12 14:59:46;;;;;;;1.05;0.80;;;;;;;;;;6597651;26;20104;-85
2024/04/12 15:49:34;;;;;;;2.13;0.80;;;;;;;;;;6594244;26;20433;-82
2024/04/12 15:52:42;;;;;;;2.28;0.95;;;;;;;;;;6600127;26;20013;-80
2024/04/12 16:12:27;;;;;;;1.48;0.90;;;;;;;;;;6604246;26;21105;-82
2024/04/12 16:15:29;;;;;;;2.28;0.90;;;;;;;;;;6620888;26;20019;-82
2024/04/12 16:18:31;;;;;;;1.58;0.95;;;;;;;;;;6610516;26;20016;-81
2024/04/12 16:21:34;;;;;;;2.60;0.98;;;;;;;;;;6598544;26;20009;-83
2024/04/12 16:24:37;;;;;;;2.10;0.90;;;;;;;;;;6607898;26;20104;-83
2024/04/12 16:27:39;;;;;;;2.00;1.42;;;;;;;;;;6605014;26;20037;-83
2024/04/12 16:30:43;;;;;;;0.90;0.73;;;;;;;;;;6599995;26;20078;-85
2024/04/12 16:33:45;;;;;;;2.40;1.25;;;;;;;;;;6606539;26;20006;-84
2024/04/12 16:36:49;;;;;;;2.47;1.02;;;;;;;;;;6600550;26;20637;-85
2024/04/12 16:39:52;;;;;;;1.17;1.00;;;;;;;;;;6609437;26;20049;-85
2024/04/12 16:42:54;;;;;;;1.40;0.93;;;;;;;;;;6632382;26;20013;-85
2024/04/12 16:45:57;;;;;;;3.70;1.10;;;;;;;;;;6603763;26;20009;-87
2024/04/12 16:49:00;;;;;;;1.10;1.00;;;;;;;;;;6614536;26;20484;-86
2024/04/12 16:52:03;;;;;;;4.75;1.50;;;;;;;;;;6606407;26;20051;-85
2024/04/12 16:55:05;;;;;;;2.40;1.58;;;;;;;;;;6598529;26;20010;-86
2024/04/12 16:58:08;;;;;;;2.65;1.70;;;;;;;;;;6614860;26;20029;-85
2024/04/12 17:01:13;;;;;;;2.50;1.30;;;;;;;;;;6581606;26;20016;-86
2024/04/12 17:04:17;;;;;;;2.25;1.42;;;;;;;;;;6603755;26;20002;-84
2024/04/12 17:07:19;;;;;;;2.70;1.65;;;;;;;;;;6598284;26;20005;-84
2024/04/12 17:10:25;;;;;;;2.25;1.20;;;;;;;;;;6590302;26;20014;-86
2024/04/12 17:13:27;;;;;;;1.45;1.35;;;;;;;;;;6574589;26;20422;-83
2024/04/12 17:16:30;;;;;;;1.35;1.25;;;;;;;;;;6604902;26;20019;-86
2024/04/12 17:19:32;;;;;;;2.60;1.50;;;;;;;;;;6614650;26;20004;-85
2024/04/12 17:22:38;;;;;;;2.73;1.27;;;;;;;;;;6610048;26;20075;-85
2024/04/12 17:25:40;;;;;;;2.05;1.20;;;;;;;;;;6614925;26;20351;-84
2024/04/12 17:28:42;;;;;;;1.70;1.40;;;;;;;;;;6596266;26;20005;-84
2024/04/12 17:31:46;;;;;;;3.90;1.52;;;;;;;;;;6599164;26;20005;-86
2024/04/12 17:34:50;;;;;;;1.52;1.25;;;;;;;;;;6603995;26;20013;-84
2024/04/12 17:37:52;;;;;;;2.85;1.50;;;;;;;;;;6604050;26;20030;-85
2024/04/12 17:40:54;;;;;;;2.00;1.40;;;;;;;;;;6581378;26;20335;-85
2024/04/12 17:43:56;;;;;;;1.87;1.70;;;;;;;;;;6598828;26;20535;-84
2024/04/12 17:46:59;;;;;;;2.63;1.60;;;;;;;;;;6604625;26;20364;-85
2024/04/12 17:50:03;;;;;;;2.80;1.50;;;;;;;;;;6603009;26;20025;-83
2024/04/12 17:53:06;;;;;;;1.67;1.40;;;;;;;;;;6590063;26;20045;-84
2024/04/12 17:56:08;;;;;;;2.33;1.77;;;;;;;;;;6606155;26;20004;-84
2024/04/12 17:59:10;;;;;;;2.78;1.58;;;;;;;;;;6596190;26;20411;-85
2024/04/12 18:02:12;;;;;;;2.97;2.00;;;;;;;;;;6598020;26;20005;-86
2024/04/12 18:05:15;;;;;;;8.77;6.53;;;;;;;;;;6574331;26;20368;-87
2024/04/12 18:08:18;;;;;;;18.63;12.02;;;;;;;;;;6603860;26;20009;-85
2024/04/12 18:11:20;;;;;;;50.63;29.20;;;;;;;;;;6611593;26;20291;-85
2024/04/12 18:14:22;;;;;;;26.92;16.08;;;;;;;;;;6610034;26;20382;-84
2024/04/12 18:17:25;;;;;;;23.13;13.80;;;;;;;;;;6601026;26;20083;-82
2024/04/12 18:20:27;;;;;;;18.17;9.57;;;;;;;;;;6604095;26;20018;-83
2024/04/12 18:23:29;;;;;;;13.33;8.50;;;;;;;;;;6615036;26;20331;-86
2024/04/12 18:26:31;;;;;;;7.85;4.65;;;;;;;;;;6604688;26;20002;-84
2024/04/12 18:29:34;;;;;;;13.13;6.73;;;;;;;;;;6620479;26;20004;-85
2024/04/12 18:32:36;;;;;;;13.13;7.88;;;;;;;;;;6595658;26;20004;-84
2024/04/12 18:35:48;;;;;;;9.30;7.82;;;;;;;;;;6608104;26;20001;-84
2024/04/12 18:45:33;;;;;;;23.40;16.77;;;;;;;;;;6625491;26;20052;-84
2024/04/12 18:48:36;;;;;;;10.55;7.35;;;;;;;;;;6608046;26;20009;-85
2024/04/12 18:51:38;;;;;;;7.30;6.32;;;;;;;;;;6607039;26;20443;-83
2024/04/12 18:54:40;;;;;;;8.67;5.73;;;;;;;;;;6607984;26;20005;-83
2024/04/12 18:57:43;;;;;;;7.93;5.95;;;;;;;;;;6600578;26;20011;-84
2024/04/12 19:00:48;;;;;;;9.90;7.87;;;;;;;;;;6613717;26;20107;-85
2024/04/12 19:03:51;;;;;;;13.02;10.05;;;;;;;;;;6606904;26;20036;-84
2024/04/12 19:06:54;;;;;;;13.70;10.98;;;;;;;;;;6618770;26;20021;-84
2024/04/12 19:09:56;;;;;;;9.50;7.43;;;;;;;;;;6620135;26;20013;-84
2024/04/12 19:12:58;;;;;;;9.83;6.83;;;;;;;;;;6622962;26;20001;-84
2024/04/12 19:16:00;;;;;;;8.43;6.63;;;;;;;;;;6629167;26;20076;-83
2024/04/12 19:19:03;;;;;;;10.80;6.57;;;;;;;;;;6618141;26;20001;-84
2024/04/12 19:22:06;;;;;;;15.15;9.48;;;;;;;;;;6620659;26;20005;-83
2024/04/12 19:25:13;;;;;;;17.85;12.95;;;;;;;;;;6625306;26;20465;-84
2024/04/12 19:28:15;;;;;;;25.75;15.82;;;;;;;;;;6615635;26;20771;-82
2024/04/12 19:31:17;;;;;;;18.20;13.70;;;;;;;;;;6612742;26;23771;-83
2024/04/12 19:34:20;;;;;;;17.70;13.20;;;;;;;;;;6623168;26;20345;-83
2024/04/12 19:37:22;;;;;;;14.63;11.90;;;;;;;;;;6599570;26;20016;-84
2024/04/12 19:40:24;;;;;;;14.63;10.45;;;;;;;;;;6590944;26;20833;-84
2024/04/12 19:43:28;;;;;;;12.77;9.23;;;;;;;;;;6621356;26;20018;-84
2024/04/12 19:46:32;;;;;;;10.55;9.05;;;;;;;;;;6613629;26;20353;-84
2024/04/12 19:49:34;;;;;;;9.13;7.25;;;;;;;;;;6611234;26;19997;-84
2024/04/12 19:52:36;;;;;;;7.97;6.20;;;;;;;;;;6614891;26;20017;-84
2024/04/12 19:56:08;;;;;;;7.68;6.50;;;;;;;;;;6608198;26;20490;-84
2024/04/12 19:59:10;;;;;;;13.07;6.90;;;;;;;;;;6608582;26;20005;-84
2024/04/12 20:02:12;;;;;;;9.93;7.27;;;;;;;;;;6603234;26;20017;-83
2024/04/12 20:05:15;;;;;;;10.10;7.13;;;;;;;;;;6591313;26;20343;-83
2024/04/12 20:08:21;;;;;;;9.13;6.67;;;;;;;;;;6610064;26;20076;-83
2024/04/12 20:11:25;;;;;;;10.82;8.07;;;;;;;;;;6607863;26;20028;-83
2024/04/12 20:14:28;;;;;;;21.65;9.13;;;;;;;;;;6606096;26;21608;-82
2024/04/12 20:17:30;;;;;;;20.27;11.38;;;;;;;;;;6595249;26;20037;-82
2024/04/12 20:20:33;;;;;;;14.52;9.85;;;;;;;;;;6585219;26;20395;-83
2024/04/12 20:23:36;;;;;;;15.38;11.07;;;;;;;;;;6603756;26;20052;-83
2024/04/12 20:26:40;;;;;;;21.55;14.15;;;;;;;;;;6593906;26;20005;-84
2024/04/12 20:30:06;;;;;;;11.73;9.10;;;;;;;;;;6610888;26;20019;-84
2024/04/12 20:33:19;;;;;;;12.25;8.20;;;;;;;;;;6602373;26;20009;-84
2024/04/12 20:36:45;;;;;;;10.63;7.68;;;;;;;;;;6617909;26;19994;-84
2024/04/12 20:39:52;;;;;;;9.57;7.85;;;;;;;;;;6611195;26;20001;-84
2024/04/12 20:42:54;;;;;;;10.38;8.02;;;;;;;;;;6643531;26;20017;-83
2024/04/12 20:45:57;;;;;;;10.68;8.07;;;;;;;;;;6633615;26;20021;-83
2024/04/12 20:49:00;;;;;;;;;;;;;;;;;;6643543;26;20013;-84
2024/04/12 20:52:06;;;;;;;18.38;12.07;;;;;;;;;;6613792;26;19926;-83
2024/04/12 20:55:09;;;;;;;18.42;11.43;;;;;;;;;;6616003;26;19997;-83
2024/04/12 20:58:15;;;;;;;16.55;11.93;;;;;;;;;;6594434;26;20006;-83
2024/04/12 21:01:20;;;;;;;14.27;9.57;;;;;;;;;;6610927;26;20009;-83